sensor_id;sensor_type;location;lat;lon;timestamp;temperature;humidity
8172;DHT22;4127;47.908;10.850;2023-04-24T09:32:26;10.60;99.90
8172;DHT22;4127;47.908;10.850;2023-04-24T09:35:22;10.50;99.90
8172;DHT22;4127;47.908;10.850;2023-04-24T09:38:35;10.40;99.90
8172;DHT22;4127;47.908;10.850;2023-04-24T09:47:03;10.90;99.90
8172;DHT22;4127;47.908;10.850;2023-04-24T09:49:35;10.80;99.90
8172;DHT22;4127;47.908;10.850;2023-04-24T09:52:08;10.80;99.90
8172;DHT22;4127;47.908;10.850;2023-04-24T09:54:37;11.00;99.90
8172;DHT22;4127;47.908;10.850;2023-04-24T09:57:06;10.90;99.90
8172;DHT22;4127;47.908;10.850;2023-04-24T09:59:33;10.90;99.90
8172;DHT22;4127;47.908;10.850;2023-04-24T10:02:17;10.90;99.90
8172;DHT22;4127;47.908;10.850;2023-04-24T10:04:54;10.90;99.90
8172;DHT22;4127;47.908;10.850;2023-04-24T10:07:27;11.00;99.90
8172;DHT22;4127;47.908;10.850;2023-04-24T10:09:55;11.30;99.90
8172;DHT22;4127;47.908;10.850;2023-04-24T10:12:23;11.00;99.90
8172;DHT22;4127;47.908;10.850;2023-04-24T10:14:55;11.20;99.90
8172;DHT22;4127;47.908;10.850;2023-04-24T10:17:34;11.10;99.90
8172;DHT22;4127;47.908;10.850;2023-04-24T10:20:02;11.10;99.90
8172;DHT22;4127;47.908;10.850;2023-04-24T10:22:30;11.00;99.90
8172;DHT22;4127;47.908;10.850;2023-04-24T10:25:14;10.90;99.90
8172;DHT22;4127;47.908;10.850;2023-04-24T10:28:21;11.00;99.90
8172;DHT22;4127;47.908;10.850;2023-04-24T10:30:49;10.90;99.90
8172;DHT22;4127;47.908;10.850;2023-04-24T10:33:17;10.80;99.90
8172;DHT22;4127;47.908;10.850;2023-04-24T10:35:47;10.80;99.90
8172;DHT22;4127;47.908;10.850;2023-04-24T10:38:30;10.60;99.90
8172;DHT22;4127;47.908;10.850;2023-04-24T10:41:06;10.60;99.90
8172;DHT22;4127;47.908;10.850;2023-04-24T10:43:35;10.90;99.90
8172;DHT22;4127;47.908;10.850;2023-04-24T10:46:04;11.30;99.90
8172;DHT22;4127;47.908;10.850;2023-04-24T10:48:53;11.60;99.90
8172;DHT22;4127;47.908;10.850;2023-04-24T10:51:43;11.60;99.90
8172;DHT22;4127;47.908;10.850;2023-04-24T10:59:51;11.90;99.90
8172;DHT22;4127;47.908;10.850;2023-04-24T11:02:19;11.80;99.90
8172;DHT22;4127;47.908;10.850;2023-04-24T11:05:08;11.60;99.90
8172;DHT22;4127;47.908;10.850;2023-04-24T11:08:11;11.50;99.90
8172;DHT22;4127;47.908;10.850;2023-04-24T11:13:27;11.30;99.90
8172;DHT22;4127;47.908;10.850;2023-04-24T11:16:29;11.50;99.90
8172;DHT22;4127;47.908;10.850;2023-04-24T11:22:13;11.30;99.90
8172;DHT22;4127;47.908;10.850;2023-04-24T11:25:03;11.20;99.90
8172;DHT22;4127;47.908;10.850;2023-04-24T11:27:42;11.20;99.90
8172;DHT22;4127;47.908;10.850;2023-04-24T11:30:10;11.20;99.90
8172;DHT22;4127;47.908;10.850;2023-04-24T11:32:39;11.20;99.90
8172;DHT22;4127;47.908;10.850;2023-04-24T11:35:17;11.00;99.90
8172;DHT22;4127;47.908;10.850;2023-04-24T11:37:49;11.00;99.90
8172;DHT22;4127;47.908;10.850;2023-04-24T11:40:21;10.70;99.90
8172;DHT22;4127;47.908;10.850;2023-04-24T11:42:55;10.80;99.90
8172;DHT22;4127;47.908;10.850;2023-04-24T11:45:30;10.90;99.90
8172;DHT22;4127;47.908;10.850;2023-04-24T11:47:58;11.00;99.90
8172;DHT22;4127;47.908;10.850;2023-04-24T11:50:26;10.80;99.90
8172;DHT22;4127;47.908;10.850;2023-04-24T11:53:09;10.70;99.90
8172;DHT22;4127;47.908;10.850;2023-04-24T11:55:38;10.70;99.90
8172;DHT22;4127;47.908;10.850;2023-04-24T11:58:06;10.60;99.90
8172;DHT22;4127;47.908;10.850;2023-04-24T12:01:09;9.80;99.90
8172;DHT22;4127;47.908;10.850;2023-04-24T12:04:05;8.50;99.90
8172;DHT22;4127;47.908;10.850;2023-04-24T12:07:22;8.40;99.90
8172;DHT22;4127;47.908;10.850;2023-04-24T12:10:20;8.50;99.90
8172;DHT22;4127;47.908;10.850;2023-04-24T12:13:13;8.60;99.90
8172;DHT22;4127;47.908;10.850;2023-04-24T12:15:42;8.50;99.90
8172;DHT22;4127;47.908;10.850;2023-04-24T12:18:12;8.60;99.90
8172;DHT22;4127;47.908;10.850;2023-04-24T12:20:40;8.90;99.90
8172;DHT22;4127;47.908;10.850;2023-04-24T12:23:07;9.30;99.90
8172;DHT22;4127;47.908;10.850;2023-04-24T12:25:34;9.40;99.90
8172;DHT22;4127;47.908;10.850;2023-04-24T12:30:34;9.90;99.90
8172;DHT22;4127;47.908;10.850;2023-04-24T12:33:02;10.20;99.90
8172;DHT22;4127;47.908;10.850;2023-04-24T12:35:31;10.30;99.90
8172;DHT22;4127;47.908;10.850;2023-04-24T12:40:34;10.00;99.90
8172;DHT22;4127;47.908;10.850;2023-04-24T12:43:02;10.10;99.90
8172;DHT22;4127;47.908;10.850;2023-04-24T12:45:29;10.30;99.90
8172;DHT22;4127;47.908;10.850;2023-04-24T12:47:55;10.70;99.90
8172;DHT22;4127;47.908;10.850;2023-04-24T12:50:22;11.20;99.90
8172;DHT22;4127;47.908;10.850;2023-04-24T12:52:49;11.50;99.90
8172;DHT22;4127;47.908;10.850;2023-04-24T12:55:16;11.80;99.90
8172;DHT22;4127;47.908;10.850;2023-04-24T12:57:43;11.80;99.90
8172;DHT22;4127;47.908;10.850;2023-04-24T13:00:10;12.00;99.90
8172;DHT22;4127;47.908;10.850;2023-04-24T13:02:37;12.20;99.90
8172;DHT22;4127;47.908;10.850;2023-04-24T13:05:04;12.50;99.90
8172;DHT22;4127;47.908;10.850;2023-04-24T13:07:31;12.60;97.80
8172;DHT22;4127;47.908;10.850;2023-04-24T13:09:58;12.40;97.40
8172;DHT22;4127;47.908;10.850;2023-04-24T13:12:24;12.30;96.40
8172;DHT22;4127;47.908;10.850;2023-04-24T13:14:52;12.30;96.70
8172;DHT22;4127;47.908;10.850;2023-04-24T13:17:19;12.50;96.10
8172;DHT22;4127;47.908;10.850;2023-04-24T13:19:48;12.50;94.80
8172;DHT22;4127;47.908;10.850;2023-04-24T13:22:16;12.50;94.40
8172;DHT22;4127;47.908;10.850;2023-04-24T13:24:43;12.60;95.00
8172;DHT22;4127;47.908;10.850;2023-04-24T13:27:10;12.30;95.20
8172;DHT22;4127;47.908;10.850;2023-04-24T13:29:37;12.20;94.20
8172;DHT22;4127;47.908;10.850;2023-04-24T13:32:04;12.20;94.50
8172;DHT22;4127;47.908;10.850;2023-04-24T13:34:31;12.30;94.80
8172;DHT22;4127;47.908;10.850;2023-04-24T13:36:58;12.30;93.60
8172;DHT22;4127;47.908;10.850;2023-04-24T13:39:26;12.50;93.40
8172;DHT22;4127;47.908;10.850;2023-04-24T13:41:53;12.80;93.60
8172;DHT22;4127;47.908;10.850;2023-04-24T13:44:21;12.50;92.00
8172;DHT22;4127;47.908;10.850;2023-04-24T13:46:53;12.30;90.80
8172;DHT22;4127;47.908;10.850;2023-04-24T13:49:21;12.40;92.80
8172;DHT22;4127;47.908;10.850;2023-04-24T13:51:48;12.60;91.50
8172;DHT22;4127;47.908;10.850;2023-04-24T13:54:15;12.70;91.80
8172;DHT22;4127;47.908;10.850;2023-04-24T13:56:42;12.50;91.00
8172;DHT22;4127;47.908;10.850;2023-04-24T13:59:08;12.30;91.20
8172;DHT22;4127;47.908;10.850;2023-04-24T14:01:35;12.20;92.00
8172;DHT22;4127;47.908;10.850;2023-04-24T14:04:02;12.00;91.50
8172;DHT22;4127;47.908;10.850;2023-04-24T14:06:29;11.80;92.50
8172;DHT22;4127;47.908;10.850;2023-04-24T14:08:56;11.90;93.10
8172;DHT22;4127;47.908;10.850;2023-04-24T14:11:23;12.00;92.10
8172;DHT22;4127;47.908;10.850;2023-04-24T14:13:50;11.80;91.60
8172;DHT22;4127;47.908;10.850;2023-04-24T14:16:17;11.90;93.00
8172;DHT22;4127;47.908;10.850;2023-04-24T14:18:44;11.90;91.70
8172;DHT22;4127;47.908;10.850;2023-04-24T14:21:10;11.80;91.90
8172;DHT22;4127;47.908;10.850;2023-04-24T14:23:37;11.90;92.50
8172;DHT22;4127;47.908;10.850;2023-04-24T14:26:04;11.90;93.10
8172;DHT22;4127;47.908;10.850;2023-04-24T14:28:32;12.20;93.00
8172;DHT22;4127;47.908;10.850;2023-04-24T14:30:59;12.10;93.20
8172;DHT22;4127;47.908;10.850;2023-04-24T14:33:26;11.90;92.30
8172;DHT22;4127;47.908;10.850;2023-04-24T14:35:53;11.60;92.80
8172;DHT22;4127;47.908;10.850;2023-04-24T14:38:20;11.60;92.90
8172;DHT22;4127;47.908;10.850;2023-04-24T14:40:47;11.60;92.90
8172;DHT22;4127;47.908;10.850;2023-04-24T14:43:16;11.40;93.50
8172;DHT22;4127;47.908;10.850;2023-04-24T14:45:43;11.60;94.40
8172;DHT22;4127;47.908;10.850;2023-04-24T14:48:10;11.60;93.70
8172;DHT22;4127;47.908;10.850;2023-04-24T14:50:37;11.60;93.70
8172;DHT22;4127;47.908;10.850;2023-04-24T14:53:04;11.40;93.90
8172;DHT22;4127;47.908;10.850;2023-04-24T14:55:31;11.30;94.10
8172;DHT22;4127;47.908;10.850;2023-04-24T14:57:59;11.10;94.10
8172;DHT22;4127;47.908;10.850;2023-04-24T15:00:26;11.10;94.90
8172;DHT22;4127;47.908;10.850;2023-04-24T15:02:53;11.10;94.70
8172;DHT22;4127;47.908;10.850;2023-04-24T15:05:22;11.00;94.80
8172;DHT22;4127;47.908;10.850;2023-04-24T15:07:49;11.10;94.50
8172;DHT22;4127;47.908;10.850;2023-04-24T15:10:16;11.20;94.90
8172;DHT22;4127;47.908;10.850;2023-04-24T15:12:44;11.40;94.30
8172;DHT22;4127;47.908;10.850;2023-04-24T15:15:11;11.30;94.90
8172;DHT22;4127;47.908;10.850;2023-04-24T15:17:38;11.30;94.00
8172;DHT22;4127;47.908;10.850;2023-04-24T15:20:05;11.10;93.40
8172;DHT22;4127;47.908;10.850;2023-04-24T15:22:32;11.20;93.80
8172;DHT22;4127;47.908;10.850;2023-04-24T15:24:59;11.20;93.70
8172;DHT22;4127;47.908;10.850;2023-04-24T15:27:27;11.40;95.00
8172;DHT22;4127;47.908;10.850;2023-04-24T15:29:54;11.30;93.60
8172;DHT22;4127;47.908;10.850;2023-04-24T15:32:21;11.40;94.30
8172;DHT22;4127;47.908;10.850;2023-04-24T15:34:48;11.60;94.10
8172;DHT22;4127;47.908;10.850;2023-04-24T15:37:30;11.70;93.60
8172;DHT22;4127;47.908;10.850;2023-04-24T15:39:57;11.60;92.40
8172;DHT22;4127;47.908;10.850;2023-04-24T15:42:26;11.50;93.20
8172;DHT22;4127;47.908;10.850;2023-04-24T15:44:53;11.40;93.00
8172;DHT22;4127;47.908;10.850;2023-04-24T15:47:20;11.40;93.80
8172;DHT22;4127;47.908;10.850;2023-04-24T15:49:46;11.40;93.30
8172;DHT22;4127;47.908;10.850;2023-04-24T15:52:13;11.40;92.50
8172;DHT22;4127;47.908;10.850;2023-04-24T15:54:40;11.40;92.60
8172;DHT22;4127;47.908;10.850;2023-04-24T15:57:07;11.40;92.80
8172;DHT22;4127;47.908;10.850;2023-04-24T15:59:33;11.50;93.40
8172;DHT22;4127;47.908;10.850;2023-04-24T16:02:00;11.50;93.40
8172;DHT22;4127;47.908;10.850;2023-04-24T16:04:27;11.30;93.20
8172;DHT22;4127;47.908;10.850;2023-04-24T16:06:54;11.10;93.80
8172;DHT22;4127;47.908;10.850;2023-04-24T16:09:22;11.10;94.30
8172;DHT22;4127;47.908;10.850;2023-04-24T16:11:49;11.00;94.20
8172;DHT22;4127;47.908;10.850;2023-04-24T16:14:16;11.20;93.90
8172;DHT22;4127;47.908;10.850;2023-04-24T16:16:43;11.10;93.80
8172;DHT22;4127;47.908;10.850;2023-04-24T16:19:10;11.20;93.60
8172;DHT22;4127;47.908;10.850;2023-04-24T16:21:36;11.30;94.20
8172;DHT22;4127;47.908;10.850;2023-04-24T16:24:03;11.30;92.90
8172;DHT22;4127;47.908;10.850;2023-04-24T16:26:30;11.20;92.90
8172;DHT22;4127;47.908;10.850;2023-04-24T16:28:57;11.10;93.20
8172;DHT22;4127;47.908;10.850;2023-04-24T16:31:24;11.10;94.50
8172;DHT22;4127;47.908;10.850;2023-04-24T16:33:52;10.80;93.30
8172;DHT22;4127;47.908;10.850;2023-04-24T16:36:19;10.70;92.90
8172;DHT22;4127;47.908;10.850;2023-04-24T16:38:46;10.70;93.30
8172;DHT22;4127;47.908;10.850;2023-04-24T16:41:36;10.70;94.10
8172;DHT22;4127;47.908;10.850;2023-04-24T16:44:03;10.80;93.60
8172;DHT22;4127;47.908;10.850;2023-04-24T16:46:30;10.80;93.60
8172;DHT22;4127;47.908;10.850;2023-04-24T16:48:57;10.60;93.80
8172;DHT22;4127;47.908;10.850;2023-04-24T16:51:24;10.50;93.90
8172;DHT22;4127;47.908;10.850;2023-04-24T16:53:52;10.50;94.40
8172;DHT22;4127;47.908;10.850;2023-04-24T16:56:18;10.50;94.40
8172;DHT22;4127;47.908;10.850;2023-04-24T16:58:45;10.40;94.80
8172;DHT22;4127;47.908;10.850;2023-04-24T17:01:12;10.40;95.50
8172;DHT22;4127;47.908;10.850;2023-04-24T17:03:41;10.30;94.60
8172;DHT22;4127;47.908;10.850;2023-04-24T17:06:09;10.30;94.80
8172;DHT22;4127;47.908;10.850;2023-04-24T17:08:36;10.20;95.40
8172;DHT22;4127;47.908;10.850;2023-04-24T17:11:03;10.20;95.80
8172;DHT22;4127;47.908;10.850;2023-04-24T17:13:30;10.30;95.90
8172;DHT22;4127;47.908;10.850;2023-04-24T17:15:57;10.20;95.70
8172;DHT22;4127;47.908;10.850;2023-04-24T17:18:23;10.20;96.40
8172;DHT22;4127;47.908;10.850;2023-04-24T17:20:50;10.30;96.30
8172;DHT22;4127;47.908;10.850;2023-04-24T17:23:17;10.30;96.20
8172;DHT22;4127;47.908;10.850;2023-04-24T17:25:45;10.20;96.30
8172;DHT22;4127;47.908;10.850;2023-04-24T17:28:38;10.10;96.10
8172;DHT22;4127;47.908;10.850;2023-04-24T17:31:05;10.00;96.40
8172;DHT22;4127;47.908;10.850;2023-04-24T17:33:32;10.10;96.40
8172;DHT22;4127;47.908;10.850;2023-04-24T17:35:59;10.00;96.50
8172;DHT22;4127;47.908;10.850;2023-04-24T17:38:29;10.10;95.90
8172;DHT22;4127;47.908;10.850;2023-04-24T17:40:56;10.00;96.10
8172;DHT22;4127;47.908;10.850;2023-04-24T17:43:23;9.90;96.00
8172;DHT22;4127;47.908;10.850;2023-04-24T17:45:52;9.90;96.10
8172;DHT22;4127;47.908;10.850;2023-04-24T17:48:21;9.90;96.20
8172;DHT22;4127;47.908;10.850;2023-04-24T17:50:48;9.90;96.50
8172;DHT22;4127;47.908;10.850;2023-04-24T17:53:15;9.80;96.60
8172;DHT22;4127;47.908;10.850;2023-04-24T17:55:44;9.80;96.60
8172;DHT22;4127;47.908;10.850;2023-04-24T17:58:14;9.70;96.70
8172;DHT22;4127;47.908;10.850;2023-04-24T18:00:41;9.80;97.30
8172;DHT22;4127;47.908;10.850;2023-04-24T18:03:08;9.70;97.10
8172;DHT22;4127;47.908;10.850;2023-04-24T18:05:36;9.70;97.70
8172;DHT22;4127;47.908;10.850;2023-04-24T18:08:03;9.60;98.00
8172;DHT22;4127;47.908;10.850;2023-04-24T18:10:31;9.50;98.00
8172;DHT22;4127;47.908;10.850;2023-04-24T18:12:59;9.50;98.60
8172;DHT22;4127;47.908;10.850;2023-04-24T18:15:25;9.40;98.80
8172;DHT22;4127;47.908;10.850;2023-04-24T18:17:52;9.30;98.90
8172;DHT22;4127;47.908;10.850;2023-04-24T18:20:19;9.20;99.30
8172;DHT22;4127;47.908;10.850;2023-04-24T18:22:46;9.10;99.30
8172;DHT22;4127;47.908;10.850;2023-04-24T18:25:13;9.10;99.70
8172;DHT22;4127;47.908;10.850;2023-04-24T18:27:41;9.00;99.90
8172;DHT22;4127;47.908;10.850;2023-04-24T18:30:09;8.90;99.90
8172;DHT22;4127;47.908;10.850;2023-04-24T18:32:40;8.80;99.90
8172;DHT22;4127;47.908;10.850;2023-04-24T18:35:07;8.80;99.90
8172;DHT22;4127;47.908;10.850;2023-04-24T18:37:34;8.80;99.90
8172;DHT22;4127;47.908;10.850;2023-04-24T18:40:01;8.90;99.90
8172;DHT22;4127;47.908;10.850;2023-04-24T18:42:29;8.80;99.90
8172;DHT22;4127;47.908;10.850;2023-04-24T18:44:55;8.80;99.90
8172;DHT22;4127;47.908;10.850;2023-04-24T18:47:32;8.80;99.90
8172;DHT22;4127;47.908;10.850;2023-04-24T18:49:59;8.80;99.90
8172;DHT22;4127;47.908;10.850;2023-04-24T18:52:26;8.80;99.90
8172;DHT22;4127;47.908;10.850;2023-04-24T18:54:53;8.60;99.90
8172;DHT22;4127;47.908;10.850;2023-04-24T18:57:19;8.50;99.90
8172;DHT22;4127;47.908;10.850;2023-04-24T18:59:46;8.40;99.90
8172;DHT22;4127;47.908;10.850;2023-04-24T19:02:13;8.40;99.90
8172;DHT22;4127;47.908;10.850;2023-04-24T19:04:41;8.30;99.90
8172;DHT22;4127;47.908;10.850;2023-04-24T19:07:08;8.20;99.90
8172;DHT22;4127;47.908;10.850;2023-04-24T19:09:35;8.10;99.90
8172;DHT22;4127;47.908;10.850;2023-04-24T19:12:02;8.10;99.90
8172;DHT22;4127;47.908;10.850;2023-04-24T19:14:29;8.00;99.90
8172;DHT22;4127;47.908;10.850;2023-04-24T19:16:56;7.90;99.90
8172;DHT22;4127;47.908;10.850;2023-04-24T19:19:23;7.80;99.90
8172;DHT22;4127;47.908;10.850;2023-04-24T19:21:51;7.90;99.90
8172;DHT22;4127;47.908;10.850;2023-04-24T19:24:18;7.80;99.90
8172;DHT22;4127;47.908;10.850;2023-04-24T19:26:47;7.80;99.90
8172;DHT22;4127;47.908;10.850;2023-04-24T19:29:14;7.70;99.90
8172;DHT22;4127;47.908;10.850;2023-04-24T19:31:41;7.40;99.90
8172;DHT22;4127;47.908;10.850;2023-04-24T19:34:16;7.30;99.90
8172;DHT22;4127;47.908;10.850;2023-04-24T19:36:47;7.20;99.90
8172;DHT22;4127;47.908;10.850;2023-04-24T19:39:23;7.20;99.90
8172;DHT22;4127;47.908;10.850;2023-04-24T19:41:50;7.20;99.90
8172;DHT22;4127;47.908;10.850;2023-04-24T19:44:17;7.10;99.90
8172;DHT22;4127;47.908;10.850;2023-04-24T19:46:50;7.00;99.90
8172;DHT22;4127;47.908;10.850;2023-04-24T19:50:06;6.90;99.90
8172;DHT22;4127;47.908;10.850;2023-04-24T19:55:37;6.80;99.90
8172;DHT22;4127;47.908;10.850;2023-04-24T19:58:18;6.80;99.90
8172;DHT22;4127;47.908;10.850;2023-04-24T20:01:47;6.80;99.90
8172;DHT22;4127;47.908;10.850;2023-04-24T20:04:55;6.80;99.90
8172;DHT22;4127;47.908;10.850;2023-04-24T20:07:52;6.80;99.90
8172;DHT22;4127;47.908;10.850;2023-04-24T20:10:36;6.80;99.90
8172;DHT22;4127;47.908;10.850;2023-04-24T20:13:30;6.80;99.90
8172;DHT22;4127;47.908;10.850;2023-04-24T20:17:19;6.80;99.90
8172;DHT22;4127;47.908;10.850;2023-04-24T20:28:13;6.60;99.90
8172;DHT22;4127;47.908;10.850;2023-04-24T20:54:59;6.00;99.90
8172;DHT22;4127;47.908;10.850;2023-04-24T20:57:26;6.00;99.90
8172;DHT22;4127;47.908;10.850;2023-04-24T20:59:53;6.00;99.90
8172;DHT22;4127;47.908;10.850;2023-04-24T21:02:20;6.00;99.90
8172;DHT22;4127;47.908;10.850;2023-04-24T21:04:47;6.00;99.90
8172;DHT22;4127;47.908;10.850;2023-04-24T21:07:14;6.10;99.90
8172;DHT22;4127;47.908;10.850;2023-04-24T21:09:41;6.00;99.90
8172;DHT22;4127;47.908;10.850;2023-04-24T21:12:07;5.90;99.90
8172;DHT22;4127;47.908;10.850;2023-04-24T21:14:34;5.90;99.90
8172;DHT22;4127;47.908;10.850;2023-04-24T21:17:01;5.80;99.90
8172;DHT22;4127;47.908;10.850;2023-04-24T21:19:28;5.90;99.90
8172;DHT22;4127;47.908;10.850;2023-04-24T21:21:55;5.70;99.90
8172;DHT22;4127;47.908;10.850;2023-04-24T21:24:22;5.80;99.90
8172;DHT22;4127;47.908;10.850;2023-04-24T21:26:49;5.70;99.90
8172;DHT22;4127;47.908;10.850;2023-04-24T21:29:16;5.80;99.90
8172;DHT22;4127;47.908;10.850;2023-04-24T21:31:43;5.70;99.90
8172;DHT22;4127;47.908;10.850;2023-04-24T21:34:10;5.70;99.90
8172;DHT22;4127;47.908;10.850;2023-04-24T21:36:36;5.70;99.90
8172;DHT22;4127;47.908;10.850;2023-04-24T21:39:03;5.70;99.90
8172;DHT22;4127;47.908;10.850;2023-04-24T21:41:30;5.60;99.90
8172;DHT22;4127;47.908;10.850;2023-04-24T21:43:56;5.60;99.90
8172;DHT22;4127;47.908;10.850;2023-04-24T21:46:25;5.50;99.90
8172;DHT22;4127;47.908;10.850;2023-04-24T21:48:52;5.50;99.90
8172;DHT22;4127;47.908;10.850;2023-04-24T21:51:18;5.50;99.90
8172;DHT22;4127;47.908;10.850;2023-04-24T21:53:46;5.40;99.90
8172;DHT22;4127;47.908;10.850;2023-04-24T21:56:13;5.40;99.90
8172;DHT22;4127;47.908;10.850;2023-04-24T21:58:40;5.40;99.90
8172;DHT22;4127;47.908;10.850;2023-04-24T22:01:08;5.50;99.90
8172;DHT22;4127;47.908;10.850;2023-04-24T22:03:35;5.50;99.90
8172;DHT22;4127;47.908;10.850;2023-04-24T22:06:02;5.50;99.90
8172;DHT22;4127;47.908;10.850;2023-04-24T22:08:28;5.40;99.90
8172;DHT22;4127;47.908;10.850;2023-04-24T22:10:55;5.40;99.90
8172;DHT22;4127;47.908;10.850;2023-04-24T22:13:22;5.40;99.90
8172;DHT22;4127;47.908;10.850;2023-04-24T22:15:49;5.40;99.90
8172;DHT22;4127;47.908;10.850;2023-04-24T22:18:16;5.40;99.90
8172;DHT22;4127;47.908;10.850;2023-04-24T22:20:44;5.40;99.90
8172;DHT22;4127;47.908;10.850;2023-04-24T22:23:12;5.40;99.90
8172;DHT22;4127;47.908;10.850;2023-04-24T22:25:38;5.50;99.90
8172;DHT22;4127;47.908;10.850;2023-04-24T22:28:05;5.50;99.90
8172;DHT22;4127;47.908;10.850;2023-04-24T22:30:32;5.60;99.90
8172;DHT22;4127;47.908;10.850;2023-04-24T22:32:59;5.60;99.90
8172;DHT22;4127;47.908;10.850;2023-04-24T22:35:26;5.60;99.90
8172;DHT22;4127;47.908;10.850;2023-04-24T22:37:53;5.70;99.90
8172;DHT22;4127;47.908;10.850;2023-04-24T22:40:20;5.60;99.90
8172;DHT22;4127;47.908;10.850;2023-04-24T22:42:47;5.60;99.90
8172;DHT22;4127;47.908;10.850;2023-04-24T22:45:14;5.60;99.90
8172;DHT22;4127;47.908;10.850;2023-04-24T22:47:41;5.60;99.90
8172;DHT22;4127;47.908;10.850;2023-04-24T22:50:08;5.60;99.90
8172;DHT22;4127;47.908;10.850;2023-04-24T22:52:36;5.70;99.90
8172;DHT22;4127;47.908;10.850;2023-04-24T22:55:03;5.80;99.90
8172;DHT22;4127;47.908;10.850;2023-04-24T22:57:30;5.80;99.90
8172;DHT22;4127;47.908;10.850;2023-04-24T22:59:58;5.80;99.90
8172;DHT22;4127;47.908;10.850;2023-04-24T23:02:24;5.90;99.90
8172;DHT22;4127;47.908;10.850;2023-04-24T23:04:51;5.90;99.90
8172;DHT22;4127;47.908;10.850;2023-04-24T23:07:19;5.90;99.90
8172;DHT22;4127;47.908;10.850;2023-04-24T23:09:46;5.90;99.90
8172;DHT22;4127;47.908;10.850;2023-04-24T23:12:13;5.90;99.90
8172;DHT22;4127;47.908;10.850;2023-04-24T23:14:39;5.90;99.90
8172;DHT22;4127;47.908;10.850;2023-04-24T23:17:06;5.90;99.90
8172;DHT22;4127;47.908;10.850;2023-04-24T23:19:33;6.00;99.90
8172;DHT22;4127;47.908;10.850;2023-04-24T23:22:00;6.00;99.90
8172;DHT22;4127;47.908;10.850;2023-04-24T23:24:27;5.90;99.90
8172;DHT22;4127;47.908;10.850;2023-04-24T23:26:53;5.90;99.90
8172;DHT22;4127;47.908;10.850;2023-04-24T23:29:20;5.90;99.90
8172;DHT22;4127;47.908;10.850;2023-04-24T23:31:48;5.90;99.90
8172;DHT22;4127;47.908;10.850;2023-04-24T23:34:15;5.90;99.90
8172;DHT22;4127;47.908;10.850;2023-04-24T23:36:47;5.90;99.90
8172;DHT22;4127;47.908;10.850;2023-04-24T23:39:14;6.00;99.90
8172;DHT22;4127;47.908;10.850;2023-04-24T23:41:40;6.20;99.90
8172;DHT22;4127;47.908;10.850;2023-04-24T23:44:10;6.10;99.90
8172;DHT22;4127;47.908;10.850;2023-04-24T23:46:37;6.10;99.90
8172;DHT22;4127;47.908;10.850;2023-04-24T23:49:04;6.10;99.90
8172;DHT22;4127;47.908;10.850;2023-04-24T23:51:31;6.10;99.90
8172;DHT22;4127;47.908;10.850;2023-04-24T23:53:57;6.10;99.90
8172;DHT22;4127;47.908;10.850;2023-04-24T23:56:24;6.10;99.90
8172;DHT22;4127;47.908;10.850;2023-04-24T23:58:52;6.10;99.90
